Time;durP1;ratioP1;P1;durP2;ratioP2;P2;SDS_P1;SDS_P2;PMS_P1;PMS_P2;Temp;Humidity;BMP_temperature;BMP_pressure;BME280_temperature;BME280_humidity;BME280_pressure;Samples;Min_cycle;Max_cycle;Signal;HPM_P1;HPM_P2
2022/03/10 00:02:07;;;;;;;14.93;9.57;;;-1.40;99.90;;;;;;5072013;28;20442;-77
2022/03/10 00:04:36;;;;;;;16.37;10.07;;;-1.40;99.90;;;;;;5071967;28;20928;-78
2022/03/10 00:07:06;;;;;;;17.00;10.37;;;-1.40;99.90;;;;;;5071905;28;20544;-76
2022/03/10 00:09:34;;;;;;;17.10;9.73;;;-1.40;99.90;;;;;;5071817;28;20476;-77
2022/03/10 00:12:03;;;;;;;17.93;10.73;;;-1.40;99.90;;;;;;5071486;28;20572;-76
2022/03/10 00:14:32;;;;;;;16.67;10.40;;;-1.40;99.90;;;;;;5072093;28;20473;-77
2022/03/10 00:17:02;;;;;;;14.50;10.07;;;-1.40;99.90;;;;;;5071911;28;20481;-77
2022/03/10 00:19:34;;;;;;;16.93;9.90;;;-1.40;99.90;;;;;;5071628;28;20532;-75
2022/03/10 00:22:02;;;;;;;17.67;10.43;;;-1.50;99.90;;;;;;5074289;28;20450;-76
2022/03/10 00:24:32;;;;;;;17.63;11.07;;;-1.50;99.90;;;;;;5071657;28;20503;-76
2022/03/10 00:27:01;;;;;;;14.60;10.10;;;-1.50;99.90;;;;;;5071771;28;20465;-76
2022/03/10 00:29:29;;;;;;;14.23;10.03;;;-1.50;99.90;;;;;;5071973;28;20481;-75
2022/03/10 00:31:58;;;;;;;15.17;10.17;;;-1.50;99.90;;;;;;5071499;28;21039;-76
2022/03/10 00:34:31;;;;;;;15.20;10.50;;;-1.60;99.90;;;;;;5071818;28;20453;-75
2022/03/10 00:37:00;;;;;;;15.27;10.63;;;-1.60;99.90;;;;;;5071363;28;20522;-76
2022/03/10 00:39:28;;;;;;;16.93;9.87;;;-1.60;99.90;;;;;;5072154;28;20456;-77
2022/03/10 00:42:01;;;;;;;16.73;10.07;;;-1.60;99.90;;;;;;5071478;28;20557;-75
2022/03/10 00:44:31;;;;;;;16.80;10.17;;;-1.70;99.90;;;;;;5071960;28;20503;-75
2022/03/10 00:46:59;;;;;;;16.03;10.23;;;-1.70;99.90;;;;;;5075788;28;20453;-77
2022/03/10 00:49:29;;;;;;;15.30;10.10;;;-1.70;99.90;;;;;;5071416;28;20454;-76
2022/03/10 00:51:57;;;;;;;15.83;9.77;;;-1.80;99.90;;;;;;5074221;28;20442;-75
2022/03/10 00:54:25;;;;;;;16.57;10.50;;;-1.80;99.90;;;;;;5075090;28;20445;-76
2022/03/10 00:56:54;;;;;;;15.23;10.60;;;-1.80;99.90;;;;;;5074941;28;20476;-77
2022/03/10 00:59:22;;;;;;;14.43;10.20;;;-1.80;99.90;;;;;;5075405;28;20484;-78
2022/03/10 01:01:50;;;;;;;15.57;9.87;;;-1.90;99.90;;;;;;5075084;28;20771;-77
2022/03/10 01:04:18;;;;;;;15.83;10.00;;;-1.90;99.90;;;;;;5075201;28;21001;-77
2022/03/10 01:06:47;;;;;;;13.80;10.07;;;-1.90;99.90;;;;;;5075250;28;20480;-77
2022/03/10 01:09:16;;;;;;;16.90;10.53;;;-1.90;99.90;;;;;;5074905;28;20485;-77
2022/03/10 01:11:44;;;;;;;15.13;9.90;;;-1.90;99.90;;;;;;5075041;28;20564;-77
2022/03/10 01:14:12;;;;;;;13.90;9.80;;;-1.90;99.90;;;;;;5075280;28;20595;-77
2022/03/10 01:16:40;;;;;;;15.63;9.77;;;-2.00;99.90;;;;;;5074916;28;20446;-76
2022/03/10 01:19:10;;;;;;;14.27;9.73;;;-2.00;99.90;;;;;;5074607;28;20454;-76
2022/03/10 01:21:42;;;;;;;14.40;8.90;;;-2.00;99.90;;;;;;5075079;28;20534;-76
2022/03/10 01:24:12;;;;;;;14.57;9.17;;;-2.00;99.90;;;;;;5075086;28;20492;-75
2022/03/10 01:26:40;;;;;;;16.97;9.40;;;-2.00;99.90;;;;;;5074923;28;20880;-75
2022/03/10 01:29:08;;;;;;;13.07;8.77;;;-2.10;99.90;;;;;;5074329;28;20502;-76
2022/03/10 01:31:36;;;;;;;13.23;8.83;;;-2.10;99.90;;;;;;5074071;28;20991;-76
2022/03/10 01:34:07;;;;;;;13.07;9.07;;;-2.00;99.90;;;;;;5074216;28;20916;-75
2022/03/10 01:36:35;;;;;;;13.50;9.17;;;-2.10;99.90;;;;;;5075195;28;21055;-76
2022/03/10 01:39:04;;;;;;;17.03;8.90;;;-2.20;99.90;;;;;;5075688;28;20560;-76
2022/03/10 01:41:36;;;;;;;13.57;9.10;;;-2.20;99.90;;;;;;5075599;28;20454;-78
2022/03/10 01:44:09;;;;;;;13.20;9.40;;;-2.20;99.90;;;;;;5074132;28;21036;-76
2022/03/10 01:46:38;;;;;;;11.90;8.73;;;-2.20;99.90;;;;;;5078528;28;20541;-77
2022/03/10 01:49:07;;;;;;;14.20;9.13;;;-2.30;99.90;;;;;;5074261;28;20931;-76
2022/03/10 01:51:35;;;;;;;15.07;8.80;;;-2.30;99.90;;;;;;5074257;28;20489;-76
2022/03/10 01:54:03;;;;;;;14.00;9.00;;;-2.30;99.90;;;;;;5074248;28;20489;-76
2022/03/10 01:56:32;;;;;;;13.60;8.60;;;-2.30;99.90;;;;;;5074180;28;20470;-75
2022/03/10 01:59:06;;;;;;;15.30;9.37;;;-2.30;99.90;;;;;;5074575;28;20500;-76
2022/03/10 02:01:35;;;;;;;13.53;9.20;;;-2.40;99.90;;;;;;5073779;28;20485;-76
2022/03/10 02:04:04;;;;;;;12.07;8.53;;;-2.40;99.90;;;;;;5074294;28;20446;-77
2022/03/10 02:06:33;;;;;;;14.40;9.37;;;-2.40;99.90;;;;;;5074418;28;20454;-77
2022/03/10 02:11:50;;;;;;;14.63;9.07;;;-2.30;99.90;;;;;;5073953;28;20478;-76
2022/03/10 02:17:21;;;;;;;12.87;9.00;;;-2.30;99.90;;;;;;5073926;28;20879;-76
2022/03/10 02:19:51;;;;;;;12.73;8.83;;;-2.30;99.90;;;;;;5079283;28;20452;-74
2022/03/10 02:22:21;;;;;;;12.33;8.40;;;-2.30;99.90;;;;;;5076986;28;20461;-76
2022/03/10 02:24:50;;;;;;;14.67;9.30;;;-2.30;99.90;;;;;;5074665;28;20426;-76
2022/03/10 02:27:21;;;;;;;16.67;8.90;;;-2.40;99.90;;;;;;5081768;28;20489;-75
2022/03/10 02:29:51;;;;;;;15.03;9.43;;;-2.40;99.90;;;;;;5081506;28;20449;-75
2022/03/10 02:32:20;;;;;;;12.37;8.57;;;-2.50;99.90;;;;;;5079415;28;20466;-75
2022/03/10 02:34:49;;;;;;;15.30;9.70;;;-2.50;99.90;;;;;;5076903;28;20521;-77
2022/03/10 02:37:22;;;;;;;11.57;8.50;;;-2.40;99.90;;;;;;5076616;28;20489;-75
2022/03/10 02:39:53;;;;;;;12.97;8.97;;;-2.50;99.90;;;;;;5077270;28;20499;-75
2022/03/10 02:42:21;;;;;;;13.17;8.87;;;-2.50;99.90;;;;;;5075194;28;20449;-74
2022/03/10 02:44:50;;;;;;;14.07;9.10;;;-2.50;99.90;;;;;;5075026;28;20544;-75
2022/03/10 02:47:21;;;;;;;12.63;8.80;;;-2.50;99.90;;;;;;5077970;28;20458;-75
2022/03/10 02:49:49;;;;;;;14.13;9.33;;;-2.50;99.90;;;;;;5083533;28;20490;-76
2022/03/10 02:52:19;;;;;;;11.33;8.07;;;-2.50;99.90;;;;;;5082207;28;20497;-74
2022/03/10 02:54:47;;;;;;;14.13;8.93;;;-2.40;99.90;;;;;;5080262;28;20497;-75
2022/03/10 02:57:16;;;;;;;11.70;7.93;;;-2.50;99.90;;;;;;5086307;28;20925;-75
2022/03/10 02:59:44;;;;;;;12.67;8.37;;;-2.50;99.90;;;;;;5085429;28;20457;-76
2022/03/10 03:02:13;;;;;;;14.63;7.67;;;-2.50;99.90;;;;;;5078222;28;20485;-75
2022/03/10 03:04:42;;;;;;;12.10;8.10;;;-2.60;99.90;;;;;;5076107;28;20461;-77
2022/03/10 03:07:12;;;;;;;12.27;7.60;;;-2.60;99.90;;;;;;5076115;28;20445;-75
2022/03/10 03:09:47;;;;;;;10.20;7.10;;;-2.70;99.90;;;;;;5075274;28;20556;-77
2022/03/10 03:12:16;;;;;;;13.73;7.47;;;-2.70;99.90;;;;;;5075787;28;20688;-75
2022/03/10 03:14:45;;;;;;;11.73;7.70;;;-2.80;99.90;;;;;;5074142;28;20488;-76
2022/03/10 03:17:13;;;;;;;12.20;7.53;;;-2.80;99.90;;;;;;5074834;28;20512;-76
2022/03/10 03:19:44;;;;;;;12.47;7.53;;;-2.80;99.90;;;;;;5073738;28;20452;-75
2022/03/10 03:22:13;;;;;;;11.10;7.77;;;-2.90;99.90;;;;;;5073671;28;20466;-75
2022/03/10 03:24:42;;;;;;;11.47;7.53;;;-2.90;99.90;;;;;;5073471;28;20448;-74
2022/03/10 03:27:12;;;;;;;11.57;7.10;;;-2.90;99.90;;;;;;5072248;28;20454;-75
2022/03/10 03:29:40;;;;;;;13.23;8.10;;;-2.90;99.90;;;;;;5072747;28;20486;-76
2022/03/10 03:32:08;;;;;;;10.80;7.33;;;-2.90;99.90;;;;;;5072292;28;20462;-74
2022/03/10 03:34:37;;;;;;;11.23;7.47;;;-3.00;99.90;;;;;;5072553;28;20537;-76
2022/03/10 03:37:05;;;;;;;13.17;7.90;;;-3.00;99.90;;;;;;5072028;28;20971;-76
2022/03/10 03:39:33;;;;;;;12.67;8.33;;;-2.90;99.90;;;;;;5072288;28;20488;-76
2022/03/10 03:42:01;;;;;;;11.83;8.13;;;-2.90;99.90;;;;;;5071907;28;20449;-77
2022/03/10 03:44:31;;;;;;;11.33;8.13;;;-2.90;99.90;;;;;;5073559;28;20485;-76
2022/03/10 03:46:59;;;;;;;11.40;7.93;;;-2.90;99.90;;;;;;5073628;28;21006;-75
2022/03/10 03:49:27;;;;;;;12.90;8.77;;;-2.90;99.90;;;;;;5073831;28;20448;-77
2022/03/10 03:51:56;;;;;;;13.23;8.07;;;-3.00;99.90;;;;;;5074475;28;20461;-74
2022/03/10 03:54:24;;;;;;;12.90;8.57;;;-3.00;99.90;;;;;;5075143;28;20500;-76
2022/03/10 03:56:52;;;;;;;13.60;8.43;;;-3.00;99.90;;;;;;5074689;28;20529;-75
2022/03/10 03:59:23;;;;;;;12.93;8.77;;;-3.00;99.90;;;;;;5074454;28;21015;-75
2022/03/10 04:01:52;;;;;;;13.00;8.77;;;-3.00;99.90;;;;;;5072085;28;20450;-75
2022/03/10 04:04:22;;;;;;;12.40;8.97;;;-3.00;99.90;;;;;;5076634;28;20463;-76
2022/03/10 04:06:51;;;;;;;12.03;8.53;;;-3.10;99.90;;;;;;5085922;28;20458;-75
2022/03/10 04:09:19;;;;;;;16.70;8.70;;;-3.10;99.90;;;;;;5078973;28;20457;-74
2022/03/10 04:11:47;;;;;;;14.23;8.90;;;-3.10;99.90;;;;;;5082358;28;20452;-75
2022/03/10 04:14:18;;;;;;;12.07;8.30;;;-3.10;99.90;;;;;;5074030;28;20564;-76
2022/03/10 04:16:46;;;;;;;14.00;8.53;;;-3.20;99.90;;;;;;5071958;28;20438;-75
2022/03/10 04:19:17;;;;;;;13.13;9.07;;;-3.20;99.90;;;;;;5072631;28;20448;-75
2022/03/10 04:21:46;;;;;;;14.53;9.07;;;-3.10;99.90;;;;;;5073793;28;20449;-77
2022/03/10 04:24:14;;;;;;;15.33;8.93;;;-3.20;99.90;;;;;;5074053;28;20449;-77
2022/03/10 04:26:43;;;;;;;12.40;8.20;;;-3.20;99.90;;;;;;5078481;28;20460;-76
2022/03/10 04:29:13;;;;;;;12.87;8.90;;;-3.20;99.90;;;;;;5078557;28;20524;-76
2022/03/10 04:31:42;;;;;;;12.37;8.53;;;-3.30;99.90;;;;;;5078149;28;20494;-77
2022/03/10 04:34:10;;;;;;;12.67;8.63;;;-3.30;99.90;;;;;;5078629;28;20452;-75
2022/03/10 04:36:40;;;;;;;12.37;8.90;;;-3.30;99.90;;;;;;5076892;28;20453;-75
2022/03/10 04:39:10;;;;;;;15.03;9.10;;;-3.40;99.90;;;;;;5076614;28;20466;-77
2022/03/10 04:41:39;;;;;;;13.13;8.83;;;-3.30;99.90;;;;;;5076629;28;20445;-75
2022/03/10 04:44:07;;;;;;;12.00;8.57;;;-3.40;99.90;;;;;;5076679;28;20501;-75
2022/03/10 04:46:35;;;;;;;12.77;9.13;;;-3.40;99.90;;;;;;5076334;28;20476;-75
2022/03/10 04:49:05;;;;;;;14.70;9.17;;;-3.40;99.90;;;;;;5074888;28;20445;-75
2022/03/10 04:51:33;;;;;;;14.30;9.73;;;-3.40;99.90;;;;;;5075833;28;20460;-76
2022/03/10 04:54:05;;;;;;;14.60;9.83;;;-3.40;99.90;;;;;;5075152;28;20448;-76
2022/03/10 04:56:34;;;;;;;14.03;9.37;;;-3.40;99.90;;;;;;5076154;28;20953;-77
2022/03/10 04:59:02;;;;;;;15.10;9.70;;;-3.40;99.90;;;;;;5072579;28;20452;-76
2022/03/10 05:01:31;;;;;;;13.53;9.20;;;-3.40;99.90;;;;;;5074231;28;20476;-75
2022/03/10 05:03:59;;;;;;;12.77;9.57;;;-3.50;99.90;;;;;;5072052;28;20445;-76
2022/03/10 05:06:29;;;;;;;13.17;9.50;;;-3.50;99.90;;;;;;5074972;28;20817;-74
2022/03/10 05:08:57;;;;;;;16.00;9.90;;;-3.50;99.90;;;;;;5074742;28;20445;-77
2022/03/10 05:11:29;;;;;;;13.27;9.10;;;-3.50;99.90;;;;;;5074631;28;20564;-75
2022/03/10 05:14:00;;;;;;;15.30;9.93;;;-3.60;99.90;;;;;;5074992;28;21020;-76
2022/03/10 05:16:28;;;;;;;14.83;10.33;;;-3.60;99.90;;;;;;5074905;28;20521;-75
2022/03/10 05:18:57;;;;;;;17.03;9.93;;;-3.60;99.90;;;;;;5075308;28;20509;-76
2022/03/10 05:21:25;;;;;;;12.93;9.60;;;-3.60;99.90;;;;;;5074938;28;20445;-76
2022/03/10 05:23:53;;;;;;;16.60;10.47;;;-3.60;99.90;;;;;;5073048;28;21017;-74
2022/03/10 05:26:21;;;;;;;15.83;9.97;;;-3.70;99.90;;;;;;5076750;28;20540;-75
2022/03/10 05:28:52;;;;;;;16.53;10.23;;;-3.70;99.90;;;;;;5078109;28;20437;-75
2022/03/10 05:31:20;;;;;;;15.87;10.73;;;-3.70;99.90;;;;;;5077237;28;20452;-76
2022/03/10 05:33:49;;;;;;;15.90;10.30;;;-3.70;99.90;;;;;;5073900;28;20455;-77
2022/03/10 05:36:18;;;;;;;17.30;10.83;;;-3.70;99.90;;;;;;5072997;28;20480;-76
2022/03/10 05:38:46;;;;;;;16.23;10.57;;;-3.60;99.90;;;;;;5073615;28;20426;-78
2022/03/10 05:41:15;;;;;;;20.13;15.67;;;-3.50;99.90;;;;;;5074969;28;20849;-75
2022/03/10 05:43:43;;;;;;;25.07;15.50;;;-3.40;99.90;;;;;;5074801;28;20484;-75
2022/03/10 05:46:12;;;;;;;19.53;12.90;;;-3.40;99.90;;;;;;5074824;28;20514;-76
2022/03/10 05:48:41;;;;;;;16.77;11.87;;;-3.30;99.90;;;;;;5073936;28;20464;-75
2022/03/10 05:51:10;;;;;;;18.27;12.80;;;-3.20;99.90;;;;;;5073516;28;20473;-76
2022/03/10 05:53:45;;;;;;;20.00;12.73;;;-3.10;99.90;;;;;;5074004;28;20491;-76
2022/03/10 05:56:12;;;;;;;19.33;12.27;;;-3.10;99.90;;;;;;5073663;28;20920;-77
2022/03/10 05:58:41;;;;;;;22.77;14.37;;;-3.00;99.90;;;;;;5073660;28;20453;-76
2022/03/10 06:01:09;;;;;;;23.47;14.23;;;-3.00;99.90;;;;;;5073561;28;20594;-75
2022/03/10 06:03:42;;;;;;;21.37;12.30;;;-2.90;99.90;;;;;;5073797;28;20441;-76
2022/03/10 06:06:13;;;;;;;18.00;10.97;;;-3.00;99.90;;;;;;5073502;28;20484;-77
2022/03/10 06:08:43;;;;;;;16.87;11.83;;;-2.90;99.90;;;;;;5073621;28;20961;-78
2022/03/10 06:11:12;;;;;;;16.47;11.27;;;-3.00;99.90;;;;;;5073363;28;20527;-75
2022/03/10 06:13:40;;;;;;;17.23;12.37;;;-3.00;99.90;;;;;;5073064;28;20457;-78
2022/03/10 06:16:08;;;;;;;19.30;11.87;;;-2.90;99.90;;;;;;5073403;28;20994;-76
2022/03/10 06:18:42;;;;;;;20.87;12.30;;;-2.90;99.90;;;;;;5073936;28;20467;-77
2022/03/10 06:21:10;;;;;;;18.67;12.63;;;-2.90;99.90;;;;;;5073694;28;20450;-76
2022/03/10 06:23:38;;;;;;;21.77;13.97;;;-2.80;99.90;;;;;;5073607;28;20468;-75
2022/03/10 06:26:08;;;;;;;19.37;13.17;;;-2.80;99.90;;;;;;5073740;28;20860;-75
2022/03/10 06:28:36;;;;;;;21.23;13.57;;;-2.70;99.90;;;;;;5073742;28;20502;-77
2022/03/10 06:31:05;;;;;;;21.50;12.43;;;-2.60;99.90;;;;;;5072817;28;20456;-76
2022/03/10 06:33:33;;;;;;;21.43;13.23;;;-2.50;99.90;;;;;;5073350;28;20445;-75
2022/03/10 06:36:03;;;;;;;17.90;13.27;;;-2.40;99.90;;;;;;5073397;28;20477;-77
2022/03/10 06:38:31;;;;;;;17.67;13.17;;;-2.40;99.90;;;;;;5073374;28;20476;-76
2022/03/10 06:40:59;;;;;;;22.37;13.87;;;-2.30;99.90;;;;;;5073213;28;20481;-77
2022/03/10 06:43:28;;;;;;;18.60;12.93;;;-2.20;99.90;;;;;;5073315;28;20460;-78
2022/03/10 06:45:56;;;;;;;20.97;12.87;;;-2.10;99.90;;;;;;5073540;28;20541;-77
2022/03/10 06:48:24;;;;;;;17.53;12.60;;;-2.00;99.90;;;;;;5072265;28;20515;-77
2022/03/10 06:50:54;;;;;;;17.83;11.93;;;-1.90;99.90;;;;;;5072725;28;20955;-75
2022/03/10 06:53:23;;;;;;;19.53;12.93;;;-1.80;99.90;;;;;;5073457;28;20449;-74
2022/03/10 06:55:52;;;;;;;18.80;11.87;;;-1.80;99.90;;;;;;5072975;28;20517;-73
2022/03/10 06:58:24;;;;;;;19.80;12.40;;;-1.70;99.90;;;;;;5073868;28;20910;-74
2022/03/10 07:00:52;;;;;;;18.90;12.50;;;-1.60;99.90;;;;;;5073747;28;20990;-76
2022/03/10 07:03:27;;;;;;;19.63;12.43;;;-1.50;99.90;;;;;;5073996;28;20472;-76
2022/03/10 07:06:00;;;;;;;20.70;13.10;;;-1.40;99.90;;;;;;5073885;28;20449;-77
2022/03/10 07:08:29;;;;;;;26.20;14.10;;;-1.40;99.90;;;;;;5072678;28;20534;-76
2022/03/10 07:10:57;;;;;;;18.47;14.47;;;-1.30;99.90;;;;;;5072577;28;20489;-76
2022/03/10 07:13:25;;;;;;;19.83;13.60;;;-1.20;99.90;;;;;;5072746;28;20902;-77
2022/03/10 07:15:56;;;;;;;17.50;13.27;;;-1.10;99.90;;;;;;5072283;28;20560;-78
2022/03/10 07:18:24;;;;;;;17.90;12.37;;;-1.00;99.90;;;;;;5071832;28;20457;-76
2022/03/10 07:20:54;;;;;;;15.57;11.90;;;-0.80;99.90;;;;;;5064139;28;20474;-76
2022/03/10 07:23:22;;;;;;;17.10;11.53;;;-0.70;99.90;;;;;;5065981;28;20482;-77
2022/03/10 07:25:51;;;;;;;12.87;9.60;;;-0.60;99.90;;;;;;5064477;28;20557;-75
2022/03/10 07:28:21;;;;;;;14.93;9.70;;;-0.50;99.90;;;;;;5072018;28;20450;-75
2022/03/10 07:30:53;;;;;;;13.67;10.17;;;-0.30;99.90;;;;;;5070577;28;20488;-75
2022/03/10 07:33:21;;;;;;;15.60;9.77;;;-0.10;99.90;;;;;;5072114;28;20982;-76
2022/03/10 07:35:50;;;;;;;16.87;10.17;;;0.00;99.90;;;;;;5071965;28;20486;-75
2022/03/10 07:38:18;;;;;;;14.57;9.97;;;0.10;99.90;;;;;;5071646;28;20470;-76
2022/03/10 07:40:46;;;;;;;14.23;10.27;;;0.30;99.90;;;;;;5071439;28;20460;-77
2022/03/10 07:43:17;;;;;;;12.50;9.70;;;0.50;99.90;;;;;;5071619;28;20535;-75
2022/03/10 07:45:45;;;;;;;15.23;9.33;;;0.80;99.90;;;;;;5071697;28;20541;-78
2022/03/10 07:48:15;;;;;;;15.27;9.37;;;1.00;99.90;;;;;;5070006;28;20451;-78
2022/03/10 07:50:44;;;;;;;15.60;8.60;;;1.30;99.90;;;;;;5072138;28;20445;-77
2022/03/10 07:53:12;;;;;;;16.17;8.80;;;1.70;99.90;;;;;;5072156;28;20298;-77
2022/03/10 07:55:45;;;;;;;12.83;8.40;;;2.10;99.90;;;;;;5069748;28;20380;-77
2022/03/10 07:58:22;;;;;;;11.07;8.10;;;2.80;99.90;;;;;;5070913;28;20223;-78
2022/03/10 08:01:04;;;;;;;12.43;8.20;;;3.90;99.90;;;;;;5071626;28;20548;-78
2022/03/10 08:03:33;;;;;;;9.93;7.63;;;6.10;99.90;;;;;;5073965;28;20206;-79
2022/03/10 08:06:08;;;;;;;9.37;7.67;;;8.20;99.00;;;;;;5071702;28;20211;-78
2022/03/10 08:08:40;;;;;;;9.40;8.27;;;10.00;91.30;;;;;;5068782;28;20196;-77
2022/03/10 08:11:08;;;;;;;10.53;7.97;;;11.70;82.40;;;;;;5070746;28;20691;-77
2022/03/10 08:13:41;;;;;;;9.37;7.50;;;12.10;78.20;;;;;;5070027;28;20701;-77
2022/03/10 08:16:12;;;;;;;9.60;7.97;;;12.50;73.60;;;;;;5070591;28;20269;-78
2022/03/10 08:18:40;;;;;;;11.03;8.17;;;14.40;71.30;;;;;;5060859;28;20257;-77
2022/03/10 08:21:12;;;;;;;11.40;8.43;;;15.20;65.30;;;;;;5071309;28;20206;-76
2022/03/10 08:23:40;;;;;;;9.97;8.30;;;15.90;60.60;;;;;;5071911;28;20211;-77
2022/03/10 08:26:08;;;;;;;9.63;7.53;;;16.00;60.00;;;;;;5072349;28;20207;-77
2022/03/10 08:28:38;;;;;;;8.67;7.20;;;16.70;59.80;;;;;;5072558;28;20249;-74
2022/03/10 08:31:06;;;;;;;8.48;7.68;;;17.50;56.90;;;;;;5073427;28;20246;-76
2022/03/10 08:33:35;;;;;;;8.97;7.70;;;17.70;53.50;;;;;;5073055;28;20211;-77
2022/03/10 08:36:05;;;;;;;9.60;7.47;;;17.50;53.30;;;;;;5069081;28;20314;-73
2022/03/10 08:38:33;;;;;;;9.37;7.97;;;16.30;54.00;;;;;;5072646;28;20261;-77
2022/03/10 08:41:06;;;;;;;8.77;7.53;;;16.40;55.00;;;;;;5072108;28;20219;-75
2022/03/10 08:43:34;;;;;;;10.33;7.67;;;16.20;55.70;;;;;;5072961;28;20239;-75
2022/03/10 08:46:04;;;;;;;12.30;8.00;;;17.20;54.90;;;;;;5072611;28;20735;-75
2022/03/10 08:48:34;;;;;;;10.57;7.90;;;18.40;54.10;;;;;;5072747;28;20513;-76
2022/03/10 08:51:04;;;;;;;9.15;7.22;;;18.70;53.40;;;;;;5071881;28;20214;-75
2022/03/10 08:53:34;;;;;;;8.43;7.53;;;19.10;52.60;;;;;;5071813;28;20204;-74
2022/03/10 08:56:02;;;;;;;9.48;7.00;;;18.70;51.50;;;;;;5071377;28;20238;-75
2022/03/10 08:58:30;;;;;;;11.40;7.47;;;19.20;51.10;;;;;;5071414;28;20231;-75
2022/03/10 09:00:58;;;;;;;9.00;6.70;;;19.00;52.10;;;;;;5070722;28;21078;-76
2022/03/10 09:03:48;;;;;;;12.23;10.93;;;18.90;50.80;;;;;;5070839;28;20207;-76
2022/03/10 09:06:17;;;;;;;10.07;7.38;;;18.70;50.40;;;;;;5071026;28;20702;-76
2022/03/10 09:08:45;;;;;;;10.32;7.63;;;18.60;51.00;;;;;;5071571;28;20231;-75
2022/03/10 09:11:13;;;;;;;7.53;6.65;;;18.40;50.90;;;;;;5071069;28;20242;-75
2022/03/10 09:13:44;;;;;;;6.88;5.70;;;18.00;51.20;;;;;;5074910;28;20208;-77
2022/03/10 09:16:12;;;;;;;6.55;5.85;;;18.90;50.20;;;;;;5076770;28;20196;-76
2022/03/10 09:18:43;;;;;;;6.68;5.78;;;19.50;48.50;;;;;;5074901;28;20228;-76
2022/03/10 09:21:15;;;;;;;7.35;5.50;;;20.20;47.70;;;;;;5074675;28;20595;-74
2022/03/10 09:23:43;;;;;;;5.97;5.32;;;19.10;48.40;;;;;;5071101;28;20267;-78
2022/03/10 09:26:12;;;;;;;6.43;5.35;;;19.00;48.90;;;;;;5072349;28;20268;-76
2022/03/10 09:28:42;;;;;;;7.47;5.50;;;17.70;48.90;;;;;;5074166;28;20265;-77
2022/03/10 09:31:16;;;;;;;7.15;5.95;;;18.30;49.80;;;;;;5074495;28;20298;-75
2022/03/10 09:33:45;;;;;;;7.13;5.18;;;18.80;48.90;;;;;;5074172;28;20243;-78
2022/03/10 09:36:15;;;;;;;6.28;5.22;;;18.80;48.70;;;;;;5074442;28;20261;-76
2022/03/10 09:38:48;;;;;;;7.65;6.00;;;18.90;47.70;;;;;;5074431;28;20238;-73
2022/03/10 09:41:17;;;;;;;8.20;6.10;;;19.30;48.00;;;;;;5074007;28;20215;-74
2022/03/10 09:43:48;;;;;;;8.18;6.38;;;19.20;47.80;;;;;;5074307;28;20223;-77
2022/03/10 09:46:16;;;;;;;7.90;5.57;;;18.40;46.90;;;;;;5074455;28;20200;-75
2022/03/10 09:48:45;;;;;;;7.32;5.60;;;18.30;49.40;;;;;;5074464;28;20309;-77
2022/03/10 09:51:16;;;;;;;7.20;5.88;;;19.30;48.40;;;;;;5074056;28;20302;-77
2022/03/10 09:53:44;;;;;;;11.18;5.97;;;19.40;45.70;;;;;;5074568;28;20196;-77
2022/03/10 09:56:15;;;;;;;6.93;5.70;;;18.60;46.50;;;;;;5074272;28;20207;-78
2022/03/10 09:58:44;;;;;;;9.17;6.10;;;18.00;47.40;;;;;;5074550;28;20266;-73
2022/03/10 10:01:12;;;;;;;7.17;6.40;;;18.50;47.20;;;;;;5066309;28;20294;-74
2022/03/10 10:03:42;;;;;;;6.57;5.60;;;18.90;47.20;;;;;;5054029;28;20228;-77
2022/03/10 10:06:10;;;;;;;7.22;5.70;;;19.00;46.90;;;;;;5054209;28;20188;-75
2022/03/10 10:08:41;;;;;;;8.07;6.10;;;19.90;45.60;;;;;;5054125;28;20258;-77
2022/03/10 10:11:13;;;;;;;8.87;7.80;;;20.20;44.80;;;;;;5053858;28;20296;-75
2022/03/10 10:13:47;;;;;;;6.80;5.97;;;19.30;44.70;;;;;;5053493;28;20208;-75
2022/03/10 10:16:17;;;;;;;7.63;6.87;;;19.40;46.10;;;;;;5053636;28;20640;-74
2022/03/10 10:18:46;;;;;;;7.13;6.43;;;18.20;46.00;;;;;;5053930;28;20212;-75
2022/03/10 10:21:20;;;;;;;11.07;7.97;;;18.50;46.70;;;;;;5053605;28;20291;-74
2022/03/10 10:23:52;;;;;;;8.87;6.20;;;19.10;45.90;;;;;;5053421;28;20664;-78
2022/03/10 10:26:26;;;;;;;7.57;6.27;;;19.50;46.20;;;;;;5059686;28;20204;-76
2022/03/10 10:28:54;;;;;;;7.37;6.27;;;19.20;45.20;;;;;;5073307;28;20192;-77
2022/03/10 10:31:25;;;;;;;7.20;6.40;;;18.90;44.40;;;;;;5073405;28;20281;-76
2022/03/10 10:34:01;;;;;;;8.30;6.53;;;19.00;44.80;;;;;;5073506;28;20230;-75
2022/03/10 10:36:31;;;;;;;9.30;7.50;;;18.10;45.00;;;;;;5073684;28;20218;-74
2022/03/10 10:39:11;;;;;;;7.77;6.97;;;17.30;46.00;;;;;;5073649;28;20208;-76
2022/03/10 10:41:41;;;;;;;7.63;6.83;;;17.40;45.90;;;;;;5073611;28;20204;-77
2022/03/10 10:44:12;;;;;;;6.97;6.13;;;17.40;46.20;;;;;;5073441;28;20354;-77
2022/03/10 10:46:44;;;;;;;9.80;7.07;;;17.50;47.20;;;;;;5073312;28;20269;-76
2022/03/10 10:49:15;;;;;;;9.60;6.63;;;17.70;47.00;;;;;;5073231;28;20295;-79
2022/03/10 10:51:44;;;;;;;9.27;7.10;;;17.10;46.80;;;;;;5072906;28;20199;-77
2022/03/10 10:54:27;;;;;;;7.60;6.50;;;17.00;46.60;;;;;;5073426;28;20207;-77
2022/03/10 10:56:58;;;;;;;10.87;7.50;;;16.60;46.00;;;;;;5074245;28;20234;-75
2022/03/10 10:59:28;;;;;;;9.37;6.80;;;16.50;46.40;;;;;;5073210;28;20227;-77
2022/03/10 11:02:08;;;;;;;7.70;6.73;;;16.10;46.50;;;;;;5073287;28;20634;-78
2022/03/10 11:04:39;;;;;;;8.43;6.70;;;16.40;46.30;;;;;;5072956;28;20569;-78
2022/03/10 11:07:09;;;;;;;7.87;6.80;;;15.60;47.20;;;;;;5073188;28;20617;-77
2022/03/10 11:09:40;;;;;;;10.53;6.90;;;16.50;46.40;;;;;;5073213;28;20188;-79
2022/03/10 11:12:10;;;;;;;8.37;6.43;;;16.70;46.60;;;;;;5073872;28;20564;-76
2022/03/10 11:14:39;;;;;;;9.10;7.03;;;17.00;46.20;;;;;;5072936;28;20211;-76
2022/03/10 11:17:08;;;;;;;7.10;6.20;;;16.70;47.10;;;;;;5073101;28;20215;-77
2022/03/10 11:19:38;;;;;;;7.70;6.40;;;17.50;45.50;;;;;;5073358;28;20288;-77
2022/03/10 11:22:22;;;;;;;9.17;6.50;;;17.10;44.90;;;;;;5073741;28;20188;-75
2022/03/10 11:25:18;;;;;;;7.40;6.10;;;16.40;46.50;;;;;;5073038;28;20257;-78
2022/03/10 11:27:52;;;;;;;7.63;5.27;;;15.90;45.90;;;;;;5072871;28;20602;-77
2022/03/10 11:30:24;;;;;;;6.67;5.97;;;15.80;45.60;;;;;;5072862;28;20203;-79
2022/03/10 11:33:04;;;;;;;6.77;6.00;;;16.10;46.60;;;;;;5072517;28;20203;-76
2022/03/10 11:35:39;;;;;;;9.27;6.07;;;16.10;47.30;;;;;;5072070;28;20313;-78
2022/03/10 11:38:08;;;;;;;7.67;6.13;;;16.40;47.60;;;;;;5072017;28;20325;-78
2022/03/10 11:40:43;;;;;;;6.73;5.63;;;17.00;46.70;;;;;;5072756;28;20294;-78
2022/03/10 11:43:12;;;;;;;7.37;5.93;;;17.40;44.90;;;;;;5072623;28;20231;-77
2022/03/10 11:45:41;;;;;;;7.67;5.57;;;16.90;45.80;;;;;;5072403;28;20571;-78
2022/03/10 11:48:34;;;;;;;7.97;6.03;;;16.80;43.80;;;;;;5072317;28;20196;-78
2022/03/10 11:51:11;;;;;;;10.33;7.00;;;16.80;44.10;;;;;;5071965;28;20298;-79
2022/03/10 11:53:55;;;;;;;7.03;5.53;;;16.90;42.40;;;;;;5071820;28;20699;-78
2022/03/10 11:56:56;;;;;;;6.73;5.63;;;16.40;42.20;;;;;;5072279;28;20893;-77
2022/03/10 11:59:26;;;;;;;7.80;6.47;;;15.60;43.30;;;;;;5071890;28;20231;-76
2022/03/10 12:01:56;;;;;;;7.13;6.10;;;14.60;45.20;;;;;;5072083;28;20272;-77
2022/03/10 12:04:38;;;;;;;7.87;6.20;;;14.50;45.20;;;;;;5071956;28;20760;-77
2022/03/10 12:07:09;;;;;;;8.23;5.93;;;14.70;45.00;;;;;;5072119;28;20294;-78
2022/03/10 12:09:41;;;;;;;7.87;6.23;;;14.30;45.50;;;;;;5072257;28;20234;-79
2022/03/10 12:12:19;;;;;;;8.13;6.23;;;14.20;46.80;;;;;;5072282;28;20253;-82
2022/03/10 12:15:49;;;;;;;10.23;6.60;;;14.40;47.70;;;;;;5072062;28;20299;-79
2022/03/10 12:18:41;;;;;;;11.87;6.80;;;14.20;47.00;;;;;;5067992;28;20577;-76
2022/03/10 12:21:22;;;;;;;9.73;6.27;;;13.80;46.40;;;;;;5073777;28;20192;-77
2022/03/10 12:23:58;;;;;;;12.13;7.90;;;13.70;46.50;;;;;;5074083;28;20233;-76
2022/03/10 12:26:29;;;;;;;12.83;7.80;;;14.10;47.10;;;;;;5073670;28;20642;-78
2022/03/10 12:29:01;;;;;;;12.37;7.33;;;14.20;45.80;;;;;;5074600;28;20204;-79
2022/03/10 12:31:32;;;;;;;11.93;7.37;;;14.20;47.40;;;;;;5072049;28;20216;-78
2022/03/10 12:34:02;;;;;;;11.13;7.57;;;14.20;47.00;;;;;;5072165;28;20207;-79
2022/03/10 12:36:33;;;;;;;9.83;7.03;;;13.80;47.70;;;;;;5071813;28;20221;-78
2022/03/10 12:39:08;;;;;;;9.40;7.03;;;13.70;47.70;;;;;;5071824;28;20239;-75
2022/03/10 12:41:38;;;;;;;9.50;6.83;;;13.20;47.80;;;;;;5072168;28;20278;-77
2022/03/10 12:44:09;;;;;;;9.70;7.07;;;13.30;48.10;;;;;;5071957;28;20223;-76
2022/03/10 12:46:39;;;;;;;9.53;6.97;;;13.50;46.80;;;;;;5072830;28;20561;-77
2022/03/10 12:49:14;;;;;;;11.43;7.33;;;13.60;46.80;;;;;;5075445;28;20627;-79
2022/03/10 12:51:42;;;;;;;11.40;7.40;;;14.00;47.10;;;;;;5075429;28;20221;-78
2022/03/10 12:54:11;;;;;;;11.07;7.10;;;13.90;46.00;;;;;;5075831;28;20215;-78
2022/03/10 12:56:50;;;;;;;11.50;6.73;;;13.80;45.90;;;;;;5075298;28;20688;-78
2022/03/10 12:59:28;;;;;;;9.33;7.30;;;14.10;47.10;;;;;;5075351;28;20255;-78
2022/03/10 13:02:11;;;;;;;12.20;7.90;;;13.80;44.70;;;;;;5075244;28;20210;-77